createdAt,value
2018-04-24T00:03:14.535Z,7.08
2018-04-24T00:09:05.227Z,6.94
2018-04-24T00:14:55.892Z,7.44
2018-04-24T00:20:46.562Z,7.13
2018-04-24T00:26:37.302Z,7.22
2018-04-24T00:32:27.909Z,7.25
2018-04-24T00:38:18.684Z,6.35
2018-04-24T00:44:09.322Z,6.92
2018-04-24T00:50:00.031Z,6.08
2018-04-24T00:55:50.671Z,6.99
2018-04-24T01:01:41.359Z,7.1
2018-04-24T01:07:32.046Z,7.59
2018-04-24T01:13:22.737Z,7.52
2018-04-24T01:19:13.428Z,6.79
2018-04-24T01:25:04.090Z,7.04
2018-04-24T01:30:54.775Z,7.03
2018-04-24T01:36:45.411Z,7.49
2018-04-24T01:42:36.173Z,7.67
2018-04-24T01:48:26.779Z,6.1
2018-04-24T01:54:17.485Z,6.16
2018-04-24T02:00:08.138Z,6.28
2018-04-24T02:05:58.820Z,6.96
2018-04-24T02:11:49.538Z,6.56
2018-04-24T02:17:40.250Z,7.26
2018-04-24T02:23:30.854Z,7.94
2018-04-24T02:29:21.541Z,7.39
2018-04-24T02:35:12.295Z,7.09
2018-04-24T02:41:02.876Z,7.46
2018-04-24T02:46:53.549Z,7.91
2018-04-24T02:52:44.271Z,7.65
2018-04-24T02:58:34.895Z,7.29
2018-04-24T03:04:25.628Z,6.85
2018-04-24T03:10:16.300Z,7.24
2018-04-24T03:16:07.001Z,6.44
2018-04-24T03:21:57.670Z,7.27
2018-04-24T03:27:48.313Z,8.09
2018-04-24T03:33:38.999Z,7.43
2018-04-24T03:39:29.657Z,7.76
2018-04-24T03:45:20.316Z,8.02
2018-04-24T03:51:11.025Z,7.4
2018-04-24T03:57:01.730Z,7.24
2018-04-24T04:02:52.306Z,7.21
2018-04-24T04:08:43.051Z,6.94
2018-04-24T04:14:33.668Z,7.03
2018-04-24T04:20:24.339Z,7.33
2018-04-24T04:26:15.029Z,6.61
2018-04-24T04:32:05.710Z,7.3
2018-04-24T04:37:56.339Z,7.71
2018-04-24T04:43:47.080Z,7.53
2018-04-24T04:49:37.688Z,6.96
2018-04-24T04:55:28.375Z,7.24
2018-04-24T05:01:19.056Z,8.46
2018-04-24T05:07:09.701Z,9.32
2018-04-24T05:13:00.437Z,9.85
2018-04-24T05:18:51.117Z,12.44
2018-04-24T05:24:41.790Z,12.06
2018-04-24T05:30:32.462Z,12.71
2018-04-24T05:36:23.097Z,13.06
2018-04-24T05:42:13.760Z,12.18
2018-04-24T05:48:04.417Z,13.34
2018-04-24T05:53:55.079Z,15.47
2018-04-24T05:59:45.760Z,15.62
2018-04-24T06:05:36.462Z,15.2
2018-04-24T06:11:27.114Z,13.86
2018-04-24T06:17:17.779Z,15.94
2018-04-24T06:23:08.477Z,14.49
2018-04-24T06:28:59.114Z,14.64
2018-04-24T06:34:49.773Z,15.11
2018-04-24T06:40:40.485Z,14.74
2018-04-24T06:46:31.199Z,14.81
2018-04-24T06:52:21.792Z,14.53
2018-04-24T06:58:12.591Z,13.6
2018-04-24T07:04:03.173Z,13.94
2018-04-24T07:09:53.827Z,13.23
2018-04-24T07:15:44.620Z,13.76
2018-04-24T07:21:35.212Z,14.08
2018-04-24T07:27:26.014Z,15.66
2018-04-24T07:33:16.661Z,15.56
2018-04-24T07:39:07.517Z,13.79
2018-04-24T07:44:58.172Z,15.45
2018-04-24T07:50:48.625Z,15.24
2018-04-24T07:56:39.288Z,15.88
2018-04-24T08:02:30.016Z,14.77
2018-04-24T08:08:20.667Z,14.42
2018-04-24T08:14:11.343Z,14.68
2018-04-24T08:20:02.090Z,13.72
2018-04-24T08:25:52.740Z,15.25
2018-04-24T08:31:43.481Z,14.65
2018-04-24T08:37:34.165Z,16.7
2018-04-24T08:43:24.817Z,14.96
2018-04-24T08:49:15.508Z,13.22
2018-04-24T08:55:06.214Z,12
2018-04-24T09:00:56.928Z,14.7
2018-04-24T09:06:47.631Z,15.05
2018-04-24T09:12:38.362Z,13.39
2018-04-24T09:18:29.023Z,8.96
2018-04-24T09:24:19.828Z,13.07
2018-04-24T09:30:10.504Z,12.29
2018-04-24T09:36:01.177Z,9.4
2018-04-24T09:41:51.875Z,9.27
2018-04-24T09:47:42.625Z,9.44
2018-04-24T09:53:33.324Z,9.31
2018-04-24T09:59:24.052Z,8.56
2018-04-24T10:05:14.766Z,9.11
2018-04-24T10:11:05.522Z,8.82
2018-04-24T10:16:56.277Z,7.71
2018-04-24T10:22:46.983Z,9.5
2018-04-24T10:28:37.670Z,8.3
2018-04-24T10:34:28.387Z,7.84
2018-04-24T10:40:19.130Z,8.84
2018-04-24T10:46:09.873Z,8.47
2018-04-24T10:52:00.615Z,8.44
2018-04-24T10:57:51.436Z,7.82
2018-04-24T11:03:42.083Z,9.35
2018-04-24T11:09:32.832Z,7.4
2018-04-24T11:15:23.535Z,7.46
2018-04-24T11:21:14.265Z,6.97
2018-04-24T11:27:05.072Z,6.65
2018-04-24T11:32:55.786Z,6.15
2018-04-24T11:38:46.502Z,5.89
2018-04-24T11:44:37.300Z,6.97
2018-04-24T11:50:27.988Z,6.66
2018-04-24T11:56:18.728Z,7.18
2018-04-24T12:02:09.478Z,7.26
2018-04-24T12:08:00.271Z,5.89
2018-04-24T12:13:51.015Z,6.58
2018-04-24T12:19:41.774Z,5.73
2018-04-24T12:25:32.519Z,5.38
2018-04-24T12:31:23.267Z,4.48
2018-04-24T12:37:14.015Z,5.35
2018-04-24T12:43:04.805Z,4.62
2018-04-24T12:48:55.535Z,3.92
2018-04-24T12:54:46.372Z,4.22
2018-04-24T13:00:37.035Z,3.9
2018-04-24T13:06:27.821Z,4.04
2018-04-24T13:12:18.569Z,4.02
2018-04-24T13:18:09.307Z,3.3
2018-04-24T13:24:00.116Z,3.61
2018-04-24T13:29:50.849Z,4.53
2018-04-24T13:35:41.583Z,4.39
2018-04-24T13:41:32.341Z,4.47
2018-04-24T13:47:23.150Z,3.73
2018-04-24T13:53:13.861Z,3.58
2018-04-24T13:59:04.629Z,4.07
2018-04-24T14:04:55.449Z,3.9
2018-04-24T14:10:46.153Z,3.79
2018-04-24T14:16:37.015Z,4.59
2018-04-24T14:22:27.715Z,3.78
2018-04-24T14:28:18.435Z,4.1
2018-04-24T14:34:09.201Z,3.93
2018-04-24T14:39:59.944Z,3.9
2018-04-24T14:45:50.743Z,3.81
2018-04-24T14:51:41.598Z,3.83
2018-04-24T14:57:32.262Z,4.45
2018-04-24T15:03:23.078Z,3.55
2018-04-24T15:09:13.841Z,3.77
2018-04-24T15:15:04.614Z,3.86
2018-04-24T15:20:55.303Z,3.26
2018-04-24T15:26:46.106Z,3.24
2018-04-24T15:32:36.885Z,3.52
2018-04-24T15:38:27.607Z,3.74
2018-04-24T15:44:18.397Z,3.27
2018-04-24T15:50:09.164Z,3.83
2018-04-24T15:55:59.904Z,4.64
2018-04-24T16:01:50.705Z,3.74
2018-04-24T16:07:41.477Z,4.55
2018-04-24T16:13:32.254Z,3.96
2018-04-24T16:19:23.033Z,3.99
2018-04-24T16:25:13.765Z,4.04
2018-04-24T16:31:04.494Z,3.89
2018-04-24T16:36:55.300Z,3.9
2018-04-24T16:42:46.018Z,4.65
2018-04-24T16:48:36.826Z,4.91
2018-04-24T16:54:27.591Z,4.96
2018-04-24T17:00:18.325Z,4.81
2018-04-24T17:06:09.103Z,4.41
2018-04-24T17:11:59.844Z,4.16
2018-04-24T17:17:50.592Z,4.57
2018-04-24T17:23:41.335Z,5.15
2018-04-24T17:29:32.129Z,5.75
2018-04-24T17:35:22.946Z,4.65
2018-04-24T17:41:13.619Z,4.67
2018-04-24T17:47:04.447Z,4.36
2018-04-24T17:52:55.165Z,4.64
2018-04-24T17:58:45.889Z,4.55
2018-04-24T18:04:36.611Z,4.64
2018-04-24T18:10:27.389Z,5.26
2018-04-24T18:16:18.149Z,5.47
2018-04-24T18:21:04.359Z,5.87
2018-04-24T18:26:55.130Z,5.35
2018-04-24T18:32:45.827Z,6.27
2018-04-24T18:38:36.588Z,5.45
2018-04-24T18:44:27.301Z,10.13
2018-04-24T18:50:18.022Z,7.12
2018-04-24T18:56:08.833Z,7.05
2018-04-24T19:02:02.565Z,6.01
2018-04-24T19:07:50.274Z,6.45
2018-04-24T19:13:41.015Z,7.64
2018-04-24T19:19:31.701Z,6.54
2018-04-24T19:25:22.471Z,5.83
2018-04-24T19:31:13.253Z,5.95
2018-04-24T19:37:03.938Z,6.66
2018-04-24T19:42:54.620Z,7.72
2018-04-24T19:48:45.334Z,7.76
2018-04-24T19:54:36.069Z,7.24
2018-04-24T20:00:26.759Z,6.42
2018-04-24T20:06:17.465Z,6.13
2018-04-24T20:12:08.150Z,7.05
2018-04-24T20:17:58.942Z,7.13
2018-04-24T20:23:49.642Z,7.68
2018-04-24T20:29:40.304Z,6.74
2018-04-24T20:35:31.061Z,6.69
2018-04-24T20:41:21.717Z,6.22
2018-04-24T20:47:12.436Z,5.71
2018-04-24T20:53:03.142Z,6.66
2018-04-24T20:58:53.883Z,5.59
2018-04-24T21:04:44.555Z,5.99
2018-04-24T21:10:35.273Z,5.72
2018-04-24T21:16:25.969Z,5.41
2018-04-24T21:22:16.636Z,6.79
2018-04-24T21:28:07.328Z,5.44
2018-04-24T21:33:58.062Z,6.96
2018-04-24T21:39:48.795Z,6.24
2018-04-24T21:45:39.495Z,6.23
2018-04-24T21:51:30.183Z,5.42
2018-04-24T21:57:20.874Z,5.42
2018-04-24T22:03:11.596Z,5.65
2018-04-24T22:09:02.288Z,5.44
2018-04-24T22:14:52.952Z,6.46
2018-04-24T22:20:43.703Z,5.87
2018-04-24T22:26:34.335Z,5.74
2018-04-24T22:32:25.054Z,5.21
2018-04-24T22:38:15.743Z,5.32
2018-04-24T22:44:06.410Z,5.8
2018-04-24T22:49:57.121Z,5.5
2018-04-24T22:55:47.798Z,5.17
2018-04-24T23:01:38.525Z,5.46
2018-04-24T23:07:29.182Z,6.04
2018-04-24T23:13:19.897Z,6.05
2018-04-24T23:19:10.575Z,6.21
2018-04-24T23:25:01.342Z,5.93
2018-04-24T23:30:51.916Z,5.59
2018-04-24T23:36:42.655Z,5.41
2018-04-24T23:42:33.331Z,4.93
2018-04-24T23:48:24.050Z,5.79
2018-04-24T23:54:14.681Z,5.5
